Gentle Leader — C6WY9 — position and weather

sailwx.info

Track history (hours):
 
Tides and Currents Weather Stations Pressure Air Temp Water Temp Dewpoint Dewpoint Depression Visibility Wind Speed Wind Dir Waves Ship Positions

Gentle Leader

Last reported at 2015-Jul-05 17:24 UTC. Time now 2015-Jul-06 04:56 UTC.
Position N 36°39' W 021°27'.

Length 200 m; draft 9.4 m.

Type: Cargo ship. MMSI: 311003300.

Date/timePositionNaut miles runAvg speedWind from/ knotsBaromVisibWave heightAir tempDewpointWater temp
2015-Jul-05 17:24N 36°39' W 021°27'1715.3
2015-Jul-05 16:19N 36°39' W 021°47'1115.2
2015-Jul-05 15:33N 36°38' W 022°02'1615.4
2015-Jul-05 14:31N 36°37' W 022°22'1515.5
2015-Jul-05 13:33N 36°37' W 022°40'1515.4
2015-Jul-05 12:33N 36°36' W 022°59'1515.2
2015-Jul-05 11:33N 36°36' W 023°18'1615.4
2015-Jul-05 10:33N 36°35' W 023°38'1515.1
2015-Jul-05 09:34N 36°35' W 023°56'1615.7
2015-Jul-05 08:33N 36°34' W 024°16'1515.4
2015-Jul-05 07:34N 36°33' W 024°35'1515.2
2015-Jul-05 06:33N 36°33' W 024°54'1515.2
2015-Jul-05 05:34N 36°32' W 025°13'1515.2
2015-Jul-05 04:34N 36°31' W 025°32'1515.0
2015-Jul-05 03:34N 36°31' W 025°50'1514.7
2015-Jul-05 02:33N 36°31' W 026°08'1614.7
2015-Jul-05 01:30N 36°30' W 026°28'4414.8
2015-Jul-04 22:33N 36°28' W 027°22'1715.1
2015-Jul-04 21:26N 36°27' W 027°43'2915.4
2015-Jul-04 19:33N 36°26' W 028°19'3015.1
2015-Jul-04 17:32N 36°25' W 028°57'1615.3
2015-Jul-04 16:30N 36°23' W 029°16'3415.2
2015-Jul-04 14:15N 36°18' W 029°58'  
2015-Jun-27 08:33N 26°12' W 079°26'1818.0
2015-Jun-27 07:33N 25°54' W 079°31'  
Track history (hours):
 
Tides and Currents Weather Stations Pressure Air Temp Water Temp Dewpoint Dewpoint Depression Visibility Wind Speed Wind Dir Waves Ship Positions

Gentle Leader

Last reported at 2015-Jul-05 17:24 UTC. Time now 2015-Jul-06 04:56 UTC.
Position N 36°39' W 021°27'.

Length 200 m; draft 9.4 m.

Type: Cargo ship. MMSI: 311003300.

Date/timePositionNaut miles runAvg speedWind from/ knotsBaromVisibWave heightAir tempDewpointWater temp
2015-Jul-05 17:24N 36°39' W 021°27'1715.3
2015-Jul-05 16:19N 36°39' W 021°47'1115.2
2015-Jul-05 15:33N 36°38' W 022°02'1615.4
2015-Jul-05 14:31N 36°37' W 022°22'1515.5
2015-Jul-05 13:33N 36°37' W 022°40'1515.4
2015-Jul-05 12:33N 36°36' W 022°59'1515.2
2015-Jul-05 11:33N 36°36' W 023°18'1615.4
2015-Jul-05 10:33N 36°35' W 023°38'1515.1
2015-Jul-05 09:34N 36°35' W 023°56'1615.7
2015-Jul-05 08:33N 36°34' W 024°16'1515.4
2015-Jul-05 07:34N 36°33' W 024°35'1515.2
2015-Jul-05 06:33N 36°33' W 024°54'1515.2
2015-Jul-05 05:34N 36°32' W 025°13'1515.2
2015-Jul-05 04:34N 36°31' W 025°32'1515.0
2015-Jul-05 03:34N 36°31' W 025°50'1514.7
2015-Jul-05 02:33N 36°31' W 026°08'1614.7
2015-Jul-05 01:30N 36°30' W 026°28'4414.8
2015-Jul-04 22:33N 36°28' W 027°22'1715.1
2015-Jul-04 21:26N 36°27' W 027°43'2915.4
2015-Jul-04 19:33N 36°26' W 028°19'3015.1
2015-Jul-04 17:32N 36°25' W 028°57'1615.3
2015-Jul-04 16:30N 36°23' W 029°16'3415.2
2015-Jul-04 14:15N 36°18' W 029°58'  
2015-Jun-27 08:33N 26°12' W 079°26'1818.0
2015-Jun-27 07:33N 25°54' W 079°31'  

Dump ship's entire track history